地図

経路データ

SID SEASON NUMBER BASIN SUBBASIN NAME ISO_TIME NATURE LAT LON WMO_WIND WMO_PRES WMO_AGENCY TRACK_TYPE DIST2LAND LANDFALL IFLAG USA_AGENCY USA_ATCF_ID USA_LAT USA_LON USA_RECORD USA_STATUS USA_WIND USA_PRES USA_SSHS USA_R34_NE USA_R34_SE USA_R34_SW USA_R34_NW USA_R50_NE USA_R50_SE USA_R50_SW USA_R50_NW USA_R64_NE USA_R64_SE USA_R64_SW USA_R64_NW USA_POCI USA_ROCI USA_RMW USA_EYE TOKYO_LAT TOKYO_LON TOKYO_GRADE TOKYO_WIND TOKYO_PRES TOKYO_R50_DIR TOKYO_R50_LONG TOKYO_R50_SHORT TOKYO_R30_DIR TOKYO_R30_LONG TOKYO_R30_SHORT TOKYO_LAND CMA_LAT CMA_LON CMA_CAT CMA_WIND CMA_PRES HKO_LAT HKO_LON HKO_CAT HKO_WIND HKO_PRES NEWDELHI_LAT NEWDELHI_LON NEWDELHI_GRADE NEWDELHI_WIND NEWDELHI_PRES NEWDELHI_CI NEWDELHI_DP NEWDELHI_POCI REUNION_LAT REUNION_LON REUNION_TYPE REUNION_WIND REUNION_PRES REUNION_TNUM REUNION_CI REUNION_RMW REUNION_R34_NE REUNION_R34_SE REUNION_R34_SW REUNION_R34_NW REUNION_R50_NE REUNION_R50_SE REUNION_R50_SW REUNION_R50_NW REUNION_R64_NE REUNION_R64_SE REUNION_R64_SW REUNION_R64_NW BOM_LAT BOM_LON BOM_TYPE BOM_WIND BOM_PRES BOM_TNUM BOM_CI BOM_RMW BOM_R34_NE BOM_R34_SE BOM_R34_SW BOM_R34_NW BOM_R50_NE BOM_R50_SE BOM_R50_SW BOM_R50_NW BOM_R64_NE BOM_R64_SE BOM_R64_SW BOM_R64_NW BOM_ROCI BOM_POCI BOM_EYE BOM_POS_METHOD BOM_PRES_METHOD NADI_LAT NADI_LON NADI_CAT NADI_WIND NADI_PRES WELLINGTON_LAT WELLINGTON_LON WELLINGTON_WIND WELLINGTON_PRES DS824_LAT DS824_LON DS824_STAGE DS824_WIND DS824_PRES TD9636_LAT TD9636_LON TD9636_STAGE TD9636_WIND TD9636_PRES TD9635_LAT TD9635_LON TD9635_WIND TD9635_PRES TD9635_ROCI NEUMANN_LAT NEUMANN_LON NEUMANN_CLASS NEUMANN_WIND NEUMANN_PRES MLC_LAT MLC_LON MLC_CLASS MLC_WIND MLC_PRES USA_GUST BOM_GUST BOM_GUST_PER REUNION_GUST REUNION_GUST_PER USA_SEAHGT USA_SEARAD_NE USA_SEARAD_SE USA_SEARAD_SW USA_SEARAD_NW STORM_SPEED STORM_DIR
1939202N21116 1939 37 WP MM NOT_NAMED 1939-07-21 10:00:00 NR 21.0000 115.900 main 190 179 __________O___ -1 21.0000 115.900 2 2 25
1939202N21116 1939 37 WP MM NOT_NAMED 1939-07-21 12:00:00 NR 21.0623 115.936 main 179 168 __________P___ -1 21.0623 115.936 2 2 32
1939202N21116 1939 37 WP MM NOT_NAMED 1939-07-21 15:00:00 NR 21.1573 116.003 main 168 159 __________P___ -1 21.1573 116.003 2 2 37
1939202N21116 1939 37 WP MM NOT_NAMED 1939-07-21 18:00:00 NR 21.2566 116.098 main 159 151 __________P___ -1 21.2566 116.098 2 3 47
1939202N21116 1939 37 WP MM NOT_NAMED 1939-07-21 21:00:00 NR 21.3627 116.239 main 151 151 __________P___ -1 21.3627 116.239 2 4 53
1939202N21116 1939 37 WP MM NOT_NAMED 1939-07-21 22:00:00 NR 21.4000 116.300 main 154 147 __________O___ -1 21.4000 116.300 2 4 59
1939202N21116 1939 37 WP MM NOT_NAMED 1939-07-22 00:00:00 NR 21.4777 116.443 main 147 143 __________P___ -1 21.4777 116.443 2 5 62
1939202N21116 1939 37 WP MM NOT_NAMED 1939-07-22 03:00:00 NR 21.6006 116.702 main 146 137 __________P___ -1 21.6006 116.702 2 6 64
1939202N21116 1939 37 WP MM NOT_NAMED 1939-07-22 06:00:00 NR 21.7281 116.995 main 143 137 __________P___ -1 21.7281 116.995 2 6 65
1939202N21116 1939 37 WP MM NOT_NAMED 1939-07-22 09:00:00 NR 21.8571 117.300 main 138 138 __________P___ -1 21.8571 117.300 2 6 65
1939202N21116 1939 37 WP MM NOT_NAMED 1939-07-22 10:00:00 NR 21.9000 117.400 main 145 143 __________O___ -1 21.9000 117.400 2 6 64
1939202N21116 1939 37 WP MM NOT_NAMED 1939-07-22 12:00:00 NR 21.9939 117.607 main 151 151 __________P___ -1 21.9939 117.607 2 6 64
1939202N21116 1939 37 WP MM NOT_NAMED 1939-07-22 15:00:00 NR 22.1351 117.918 main 169 168 __________P___ -1 22.1351 117.918 2 6 64
1939202N21116 1939 37 WP MM NOT_NAMED 1939-07-22 18:00:00 NR 22.2652 118.204 main 168 166 __________P___ -1 22.2652 118.204 2 5 64
1939202N21116 1939 37 WP MM NOT_NAMED 1939-07-22 21:00:00 NR 22.3718 118.438 main 166 166 __________P___ -1 22.3718 118.438 2 5 64
1939202N21116 1939 37 WP MM NOT_NAMED 1939-07-22 22:00:00 NR 22.4000 118.500 main 172 170 __________O___ -1 22.4000 118.500 2 3 63
1939202N21116 1939 37 WP MM NOT_NAMED 1939-07-23 00:00:00 NR 22.4393 118.582 main 170 167 __________P___ -1 22.4393 118.582 2 2 61
1939202N21116 1939 37 WP MM NOT_NAMED 1939-07-23 03:00:00 NR 22.4732 118.649 main 167 157 __________P___ -1 22.4732 118.649 2 1 62
1939202N21116 1939 37 WP MM NOT_NAMED 1939-07-23 06:00:00 NR 22.4881 118.675 main 157 157 __________P___ -1 22.4881 118.675 2 0 54
1939202N21116 1939 37 WP MM NOT_NAMED 1939-07-23 09:00:00 NR 22.4965 118.691 main 157 157 __________P___ -1 22.4965 118.691 2 0 0
1939202N21116 1939 37 WP MM NOT_NAMED 1939-07-23 10:00:00 NR 22.5000 118.700 main 157 157 __________O___ -1 22.5000 118.700 2 1 94
1939202N21116 1939 37 WP MM NOT_NAMED 1939-07-23 12:00:00 NR 22.4931 118.747 main 157 147 __________P___ -1 22.4931 118.747 2 1 99
1939202N21116 1939 37 WP MM NOT_NAMED 1939-07-23 15:00:00 NR 22.4821 118.824 main 147 137 __________P___ -1 22.4821 118.824 2 1 89
1939202N21116 1939 37 WP MM NOT_NAMED 1939-07-23 18:00:00 NR 22.4956 118.903 main 137 125 __________P___ -1 22.4956 118.903 2 2 61
1939202N21116 1939 37 WP MM NOT_NAMED 1939-07-23 21:00:00 NR 22.5615 118.977 main 125 125 __________P___ -1 22.5615 118.977 2 2 40
1939202N21116 1939 37 WP MM NOT_NAMED 1939-07-23 22:00:00 NR 22.6000 119.000 main 125 121 __________O___ -1 22.6000 119.000 2 3 21
1939202N21116 1939 37 WP MM NOT_NAMED 1939-07-24 00:00:00 NR 22.7179 119.034 main 121 102 __________P___ -1 22.7179 119.034 2 4 11
1939202N21116 1939 37 WP MM NOT_NAMED 1939-07-24 03:00:00 NR 22.9515 119.078 main 102 102 __________P___ -1 22.9515 119.078 2 5 9
1939202N21116 1939 37 WP MM NOT_NAMED 1939-07-24 06:00:00 NR 23.2256 119.123 main 102 92 __________P___ -1 23.2256 119.123 2 6 9
1939202N21116 1939 37 WP MM NOT_NAMED 1939-07-24 09:00:00 NR 23.5089 119.178 main 92 91 __________P___ -1 23.5089 119.178 2 6 11
1939202N21116 1939 37 WP MM NOT_NAMED 1939-07-24 10:00:00 NR 23.6000 119.200 main 91 84 __________O___ -1 23.6000 119.200 2 5 14
1939202N21116 1939 37 WP MM NOT_NAMED 1939-07-24 12:00:00 NR 23.7721 119.251 main 84 84 __________P___ -1 23.7721 119.251 2 5 18
1939202N21116 1939 37 WP MM NOT_NAMED 1939-07-24 15:00:00 NR 24.0084 119.343 main 90 83 __________P___ -1 24.0084 119.343 2 5 22
1939202N21116 1939 37 WP MM NOT_NAMED 1939-07-24 18:00:00 NR 24.2258 119.449 main 83 82 __________P___ -1 24.2258 119.449 2 5 25
1939202N21116 1939 37 WP MM NOT_NAMED 1939-07-24 21:00:00 NR 24.4322 119.562 main 83 78 __________P___ -1 24.4322 119.562 2 5 27
1939202N21116 1939 37 WP MM NOT_NAMED 1939-07-24 22:00:00 NR 24.5000 119.600 main 78 __________O___ -1 24.5000 119.600 2 5 31

デジタル台風データ・検索

IBTrACS Databaseについて

本データベースは、米国NOAAが公開する1842年以降の世界の熱帯低気圧のベストトラックデータアーカイブInternational Best Track Archive for Climate Stewardship (IBTrACS)を、ウェブで閲覧しやすい形式に変換したものです。

最終更新日:2021-10-27